Weather in selectable METAR weather stations

1) Select the Continent / Group:

[Europe]  [Asia]  [Africa]  [North America]  [South America]  
[Central America and Caribbean]  [Oceania]  [Antarctica]  
2) Select the Weather station (City):


METAR = DAUA 211800Z 29005KT CAVOK 41/04 Q1010

STATIONDAUA
NAMEAdrar/Belkebir Arpt, --, AL
OBSERVED21.09.2020 19:00 (21.09.2020 18:00 UTC), 30 min ago
TEMPERATURE41.0°C (106°F)
WINDWNW (290 degrees) at 6 MPH (5 knots; 2.6 m/s)
HUMIDITY10%
PRESSURE1009.8 hPa
Click here to search the weather station or to give the station identifier
(four-character ICAO Location Indicator) for weather data.